sensor_id;sensor_type;location;lat;lon;timestamp;temperature;humidity
65072;DHT22;51663;52.310;17.016;2023-04-24T00:01:43;33.40;31.60
65072;DHT22;51663;52.310;17.016;2023-04-24T00:05:10;33.60;31.60
65072;DHT22;51663;52.310;17.016;2023-04-24T00:12:55;33.70;31.60
65072;DHT22;51663;52.310;17.016;2023-04-24T00:20:36;33.70;31.50
65072;DHT22;51663;52.310;17.016;2023-04-24T00:24:41;33.80;31.50
65072;DHT22;51663;52.310;17.016;2023-04-24T00:36:53;33.70;31.50
65072;DHT22;51663;52.310;17.016;2023-04-24T00:45:00;33.70;31.50
65072;DHT22;51663;52.310;17.016;2023-04-24T00:49:03;33.80;31.40
65072;DHT22;51663;52.310;17.016;2023-04-24T00:57:27;33.80;31.50
65072;DHT22;51663;52.310;17.016;2023-04-24T01:10:36;33.90;31.50
65072;DHT22;51663;52.310;17.016;2023-04-24T01:14:13;33.80;31.50
65072;DHT22;51663;52.310;17.016;2023-04-24T01:21:51;33.70;31.60
65072;DHT22;51663;52.310;17.016;2023-04-24T01:29:21;33.50;31.90
65072;DHT22;51663;52.310;17.016;2023-04-24T01:36:58;33.60;32.00
65072;DHT22;51663;52.310;17.016;2023-04-24T01:41:05;33.60;31.80
65072;DHT22;51663;52.310;17.016;2023-04-24T01:44:26;33.70;32.00
65072;DHT22;51663;52.310;17.016;2023-04-24T01:47:57;33.60;32.00
65072;DHT22;51663;52.310;17.016;2023-04-24T01:51:21;33.70;32.30
65072;DHT22;51663;52.310;17.016;2023-04-24T01:55:56;33.60;32.10
65072;DHT22;51663;52.310;17.016;2023-04-24T02:00:25;33.50;31.80
65072;DHT22;51663;52.310;17.016;2023-04-24T02:14:39;33.60;32.00
65072;DHT22;51663;52.310;17.016;2023-04-24T02:18:01;33.50;31.80
65072;DHT22;51663;52.310;17.016;2023-04-24T02:22:14;33.40;31.90
65072;DHT22;51663;52.310;17.016;2023-04-24T02:25:55;33.10;32.30
65072;DHT22;51663;52.310;17.016;2023-04-24T02:29:11;33.00;32.60
65072;DHT22;51663;52.310;17.016;2023-04-24T02:36:53;32.90;32.70
65072;DHT22;51663;52.310;17.016;2023-04-24T02:45:16;32.90;32.90
65072;DHT22;51663;52.310;17.016;2023-04-24T02:53:39;32.60;33.30
65072;DHT22;51663;52.310;17.016;2023-04-24T02:58:03;32.60;33.50
65072;DHT22;51663;52.310;17.016;2023-04-24T03:02:00;32.80;33.20
65072;DHT22;51663;52.310;17.016;2023-04-24T03:05:02;32.80;33.30
65072;DHT22;51663;52.310;17.016;2023-04-24T03:08:06;32.70;33.30
65072;DHT22;51663;52.310;17.016;2023-04-24T03:16:19;33.00;33.20
65072;DHT22;51663;52.310;17.016;2023-04-24T03:19:58;33.00;33.00
65072;DHT22;51663;52.310;17.016;2023-04-24T03:28:01;33.00;33.00
65072;DHT22;51663;52.310;17.016;2023-04-24T03:35:40;33.10;32.90
65072;DHT22;51663;52.310;17.016;2023-04-24T03:38:43;33.00;32.70
65072;DHT22;51663;52.310;17.016;2023-04-24T03:51:27;33.00;32.30
65072;DHT22;51663;52.310;17.016;2023-04-24T03:55:32;33.00;32.30
65072;DHT22;51663;52.310;17.016;2023-04-24T04:03:01;33.00;32.20
65072;DHT22;51663;52.310;17.016;2023-04-24T04:15:57;32.70;31.80
65072;DHT22;51663;52.310;17.016;2023-04-24T04:23:46;32.80;32.10
65072;DHT22;51663;52.310;17.016;2023-04-24T04:27:55;33.10;32.20
65072;DHT22;51663;52.310;17.016;2023-04-24T04:40:07;33.40;31.80
65072;DHT22;51663;52.310;17.016;2023-04-24T04:54:35;33.50;31.70
65072;DHT22;51663;52.310;17.016;2023-04-24T04:58:40;33.30;31.90
65072;DHT22;51663;52.310;17.016;2023-04-24T05:02:08;33.50;31.70
65072;DHT22;51663;52.310;17.016;2023-04-24T05:10:19;33.70;31.70
65072;DHT22;51663;52.310;17.016;2023-04-24T05:13:39;33.70;31.90
65072;DHT22;51663;52.310;17.016;2023-04-24T05:17:12;33.80;31.70
65072;DHT22;51663;52.310;17.016;2023-04-24T05:25:24;33.90;31.80
65072;DHT22;51663;52.310;17.016;2023-04-24T05:29:11;34.00;31.70
65072;DHT22;51663;52.310;17.016;2023-04-24T05:32:46;34.10;32.00
65072;DHT22;51663;52.310;17.016;2023-04-24T05:39:33;34.50;31.40
65072;DHT22;51663;52.310;17.016;2023-04-24T05:42:55;34.60;31.00
65072;DHT22;51663;52.310;17.016;2023-04-24T05:47:13;34.70;31.00
65072;DHT22;51663;52.310;17.016;2023-04-24T05:50:48;34.90;30.90
65072;DHT22;51663;52.310;17.016;2023-04-24T05:53:51;35.00;30.50
65072;DHT22;51663;52.310;17.016;2023-04-24T05:57:15;35.10;30.40
65072;DHT22;51663;52.310;17.016;2023-04-24T06:00:52;35.10;30.70
65072;DHT22;51663;52.310;17.016;2023-04-24T06:04:57;34.80;30.70
65072;DHT22;51663;52.310;17.016;2023-04-24T06:08:44;35.20;31.40
65072;DHT22;51663;52.310;17.016;2023-04-24T06:12:33;35.70;31.00
65072;DHT22;51663;52.310;17.016;2023-04-24T06:16:42;36.20;30.00
65072;DHT22;51663;52.310;17.016;2023-04-24T06:20:00;36.50;29.20
65072;DHT22;51663;52.310;17.016;2023-04-24T06:27:27;36.10;29.20
65072;DHT22;51663;52.310;17.016;2023-04-24T06:30:36;35.90;29.40
65072;DHT22;51663;52.310;17.016;2023-04-24T06:34:13;35.80;29.60
65072;DHT22;51663;52.310;17.016;2023-04-24T06:38:02;35.80;29.80
65072;DHT22;51663;52.310;17.016;2023-04-24T06:41:43;35.40;29.50
65072;DHT22;51663;52.310;17.016;2023-04-24T06:45:26;35.20;29.70
65072;DHT22;51663;52.310;17.016;2023-04-24T06:49:13;35.40;29.80
65072;DHT22;51663;52.310;17.016;2023-04-24T06:53:01;35.50;29.60
65072;DHT22;51663;52.310;17.016;2023-04-24T06:56:50;35.30;29.60
65072;DHT22;51663;52.310;17.016;2023-04-24T07:00:30;35.60;29.90
65072;DHT22;51663;52.310;17.016;2023-04-24T07:03:34;35.60;29.60
65072;DHT22;51663;52.310;17.016;2023-04-24T07:06:54;35.60;29.30
65072;DHT22;51663;52.310;17.016;2023-04-24T07:10:05;35.90;29.10
65072;DHT22;51663;52.310;17.016;2023-04-24T07:13:34;36.00;29.20
65072;DHT22;51663;52.310;17.016;2023-04-24T07:17:10;36.30;29.50
65072;DHT22;51663;52.310;17.016;2023-04-24T07:20:29;36.40;29.20
65072;DHT22;51663;52.310;17.016;2023-04-24T07:24:20;36.70;29.40
65072;DHT22;51663;52.310;17.016;2023-04-24T07:28:02;37.40;29.20
65072;DHT22;51663;52.310;17.016;2023-04-24T07:31:34;38.60;27.80
65072;DHT22;51663;52.310;17.016;2023-04-24T07:35:05;39.60;26.80
65072;DHT22;51663;52.310;17.016;2023-04-24T07:38:25;40.50;26.20
65072;DHT22;51663;52.310;17.016;2023-04-24T07:41:27;40.50;25.20
65072;DHT22;51663;52.310;17.016;2023-04-24T07:44:53;39.90;25.30
65072;DHT22;51663;52.310;17.016;2023-04-24T07:48:28;39.50;25.30
65072;DHT22;51663;52.310;17.016;2023-04-24T07:51:59;39.10;25.50
65072;DHT22;51663;52.310;17.016;2023-04-24T07:55:19;38.70;26.30
65072;DHT22;51663;52.310;17.016;2023-04-24T07:58:47;38.20;26.80
65072;DHT22;51663;52.310;17.016;2023-04-24T08:02:27;37.60;27.40
65072;DHT22;51663;52.310;17.016;2023-04-24T08:05:43;37.60;27.70
65072;DHT22;51663;52.310;17.016;2023-04-24T08:09:12;37.90;27.00
65072;DHT22;51663;52.310;17.016;2023-04-24T08:12:23;37.90;27.00
65072;DHT22;51663;52.310;17.016;2023-04-24T08:16:09;37.30;27.20
65072;DHT22;51663;52.310;17.016;2023-04-24T08:19:59;37.20;28.00
65072;DHT22;51663;52.310;17.016;2023-04-24T08:23:25;37.60;27.10
65072;DHT22;51663;52.310;17.016;2023-04-24T08:26:32;36.60;27.80
65072;DHT22;51663;52.310;17.016;2023-04-24T08:29:42;36.80;27.90
65072;DHT22;51663;52.310;17.016;2023-04-24T08:33:28;36.70;27.90
65072;DHT22;51663;52.310;17.016;2023-04-24T08:37:30;37.00;27.80
65072;DHT22;51663;52.310;17.016;2023-04-24T08:41:21;36.80;27.90
65072;DHT22;51663;52.310;17.016;2023-04-24T08:48:17;35.80;29.30
65072;DHT22;51663;52.310;17.016;2023-04-24T08:51:45;35.90;28.80
65072;DHT22;51663;52.310;17.016;2023-04-24T08:55:06;36.20;29.00
65072;DHT22;51663;52.310;17.016;2023-04-24T08:58:13;36.30;28.60
65072;DHT22;51663;52.310;17.016;2023-04-24T09:01:18;36.50;28.60
65072;DHT22;51663;52.310;17.016;2023-04-24T09:04:33;36.10;28.80
65072;DHT22;51663;52.310;17.016;2023-04-24T09:07:53;36.20;29.00
65072;DHT22;51663;52.310;17.016;2023-04-24T09:10:56;36.60;28.80
65072;DHT22;51663;52.310;17.016;2023-04-24T09:14:00;36.60;28.30
65072;DHT22;51663;52.310;17.016;2023-04-24T09:17:03;36.70;28.60
65072;DHT22;51663;52.310;17.016;2023-04-24T09:20:06;37.00;28.20
65072;DHT22;51663;52.310;17.016;2023-04-24T09:23:20;37.60;28.30
65072;DHT22;51663;52.310;17.016;2023-04-24T09:26:26;37.40;27.60
65072;DHT22;51663;52.310;17.016;2023-04-24T09:29:31;36.80;27.90
65072;DHT22;51663;52.310;17.016;2023-04-24T09:32:35;36.50;28.40
65072;DHT22;51663;52.310;17.016;2023-04-24T09:35:41;36.90;28.30
65072;DHT22;51663;52.310;17.016;2023-04-24T09:38:49;37.00;28.10
65072;DHT22;51663;52.310;17.016;2023-04-24T09:42:01;37.20;28.00
65072;DHT22;51663;52.310;17.016;2023-04-24T09:45:09;37.40;27.90
65072;DHT22;51663;52.310;17.016;2023-04-24T09:48:19;37.60;27.80
65072;DHT22;51663;52.310;17.016;2023-04-24T09:51:34;37.80;27.90
65072;DHT22;51663;52.310;17.016;2023-04-24T09:54:39;37.50;27.70
65072;DHT22;51663;52.310;17.016;2023-04-24T09:57:54;37.20;28.00
65072;DHT22;51663;52.310;17.016;2023-04-24T10:00:57;37.70;28.10
65072;DHT22;51663;52.310;17.016;2023-04-24T10:04:00;37.80;27.50
65072;DHT22;51663;52.310;17.016;2023-04-24T10:07:03;37.70;27.20
65072;DHT22;51663;52.310;17.016;2023-04-24T10:10:12;37.90;27.40
65072;DHT22;51663;52.310;17.016;2023-04-24T10:13:15;38.10;27.10
65072;DHT22;51663;52.310;17.016;2023-04-24T10:16:18;38.50;27.60
65072;DHT22;51663;52.310;17.016;2023-04-24T10:19:25;38.40;27.60
65072;DHT22;51663;52.310;17.016;2023-04-24T10:22:28;38.90;27.20
65072;DHT22;51663;52.310;17.016;2023-04-24T10:25:34;38.60;26.30
65072;DHT22;51663;52.310;17.016;2023-04-24T10:28:37;38.80;26.50
65072;DHT22;51663;52.310;17.016;2023-04-24T10:31:40;38.70;26.30
65072;DHT22;51663;52.310;17.016;2023-04-24T10:34:42;38.30;26.20
65072;DHT22;51663;52.310;17.016;2023-04-24T10:37:56;38.40;26.60
65072;DHT22;51663;52.310;17.016;2023-04-24T10:41:12;38.50;26.90
65072;DHT22;51663;52.310;17.016;2023-04-24T10:44:23;38.40;26.40
65072;DHT22;51663;52.310;17.016;2023-04-24T10:47:25;38.60;26.40
65072;DHT22;51663;52.310;17.016;2023-04-24T10:50:30;39.20;26.10
65072;DHT22;51663;52.310;17.016;2023-04-24T10:53:43;38.70;25.60
65072;DHT22;51663;52.310;17.016;2023-04-24T10:56:47;39.10;26.20
65072;DHT22;51663;52.310;17.016;2023-04-24T11:00:32;39.40;26.20
65072;DHT22;51663;52.310;17.016;2023-04-24T11:03:26;39.60;25.70
65072;DHT22;51663;52.310;17.016;2023-04-24T11:06:33;39.60;25.70
65072;DHT22;51663;52.310;17.016;2023-04-24T11:09:37;39.30;25.40
65072;DHT22;51663;52.310;17.016;2023-04-24T11:12:57;39.40;25.40
65072;DHT22;51663;52.310;17.016;2023-04-24T11:19:26;39.00;25.70
65072;DHT22;51663;52.310;17.016;2023-04-24T11:22:53;38.90;25.90
65072;DHT22;51663;52.310;17.016;2023-04-24T11:26:14;39.20;26.00
65072;DHT22;51663;52.310;17.016;2023-04-24T11:29:23;39.60;25.50
65072;DHT22;51663;52.310;17.016;2023-04-24T11:32:42;39.80;25.10
65072;DHT22;51663;52.310;17.016;2023-04-24T11:35:45;39.70;25.10
65072;DHT22;51663;52.310;17.016;2023-04-24T11:38:48;39.80;25.30
65072;DHT22;51663;52.310;17.016;2023-04-24T11:41:50;40.00;24.70
65072;DHT22;51663;52.310;17.016;2023-04-24T11:44:54;40.00;24.80
65072;DHT22;51663;52.310;17.016;2023-04-24T11:48:03;40.10;24.20
65072;DHT22;51663;52.310;17.016;2023-04-24T11:51:05;40.00;23.90
65072;DHT22;51663;52.310;17.016;2023-04-24T11:54:10;40.00;24.30
65072;DHT22;51663;52.310;17.016;2023-04-24T11:57:13;39.50;24.70
65072;DHT22;51663;52.310;17.016;2023-04-24T12:00:19;38.90;24.80
65072;DHT22;51663;52.310;17.016;2023-04-24T12:03:58;38.60;24.80
65072;DHT22;51663;52.310;17.016;2023-04-24T12:07:04;38.20;25.10
65072;DHT22;51663;52.310;17.016;2023-04-24T12:10:26;37.90;26.00
65072;DHT22;51663;52.310;17.016;2023-04-24T12:13:32;38.00;26.00
65072;DHT22;51663;52.310;17.016;2023-04-24T12:16:37;37.70;26.60
65072;DHT22;51663;52.310;17.016;2023-04-24T12:19:47;37.40;26.60
65072;DHT22;51663;52.310;17.016;2023-04-24T12:23:02;37.20;26.80
65072;DHT22;51663;52.310;17.016;2023-04-24T12:26:27;37.10;26.90
65072;DHT22;51663;52.310;17.016;2023-04-24T12:29:32;37.40;27.20
65072;DHT22;51663;52.310;17.016;2023-04-24T12:32:35;37.40;27.20
65072;DHT22;51663;52.310;17.016;2023-04-24T12:35:40;37.40;27.20
65072;DHT22;51663;52.310;17.016;2023-04-24T12:38:44;37.40;27.20
65072;DHT22;51663;52.310;17.016;2023-04-24T12:41:55;37.40;27.10
65072;DHT22;51663;52.310;17.016;2023-04-24T12:45:02;37.50;27.00
65072;DHT22;51663;52.310;17.016;2023-04-24T12:48:08;37.70;26.60
65072;DHT22;51663;52.310;17.016;2023-04-24T12:51:11;37.80;26.70
65072;DHT22;51663;52.310;17.016;2023-04-24T12:54:15;38.00;26.90
65072;DHT22;51663;52.310;17.016;2023-04-24T12:57:18;38.00;27.30
65072;DHT22;51663;52.310;17.016;2023-04-24T13:00:21;38.00;27.00
65072;DHT22;51663;52.310;17.016;2023-04-24T13:03:28;37.90;26.40
65072;DHT22;51663;52.310;17.016;2023-04-24T13:06:33;38.20;26.20
65072;DHT22;51663;52.310;17.016;2023-04-24T13:09:36;38.20;26.20
65072;DHT22;51663;52.310;17.016;2023-04-24T13:12:39;38.40;26.70
65072;DHT22;51663;52.310;17.016;2023-04-24T13:15:42;38.20;25.60
65072;DHT22;51663;52.310;17.016;2023-04-24T13:18:46;38.30;25.90
65072;DHT22;51663;52.310;17.016;2023-04-24T13:21:52;38.60;25.90
65072;DHT22;51663;52.310;17.016;2023-04-24T13:24:55;38.60;25.10
65072;DHT22;51663;52.310;17.016;2023-04-24T13:27:58;38.70;24.90
65072;DHT22;51663;52.310;17.016;2023-04-24T13:31:00;38.60;24.90
65072;DHT22;51663;52.310;17.016;2023-04-24T13:34:03;38.70;24.90
65072;DHT22;51663;52.310;17.016;2023-04-24T13:37:05;38.90;24.90
65072;DHT22;51663;52.310;17.016;2023-04-24T13:40:12;38.90;24.90
65072;DHT22;51663;52.310;17.016;2023-04-24T13:43:16;38.80;24.60
65072;DHT22;51663;52.310;17.016;2023-04-24T13:46:22;38.30;24.90
65072;DHT22;51663;52.310;17.016;2023-04-24T13:49:25;38.10;25.20
65072;DHT22;51663;52.310;17.016;2023-04-24T13:52:31;37.90;25.20
65072;DHT22;51663;52.310;17.016;2023-04-24T13:55:33;38.20;25.00
65072;DHT22;51663;52.310;17.016;2023-04-24T13:58:36;37.80;25.20
65072;DHT22;51663;52.310;17.016;2023-04-24T14:01:39;37.70;25.30
65072;DHT22;51663;52.310;17.016;2023-04-24T14:04:41;37.60;25.10
65072;DHT22;51663;52.310;17.016;2023-04-24T14:07:44;37.40;25.20
65072;DHT22;51663;52.310;17.016;2023-04-24T14:10:47;37.30;25.30
65072;DHT22;51663;52.310;17.016;2023-04-24T14:13:49;37.50;25.40
65072;DHT22;51663;52.310;17.016;2023-04-24T14:16:52;37.40;25.40
65072;DHT22;51663;52.310;17.016;2023-04-24T14:19:55;37.40;25.30
65072;DHT22;51663;52.310;17.016;2023-04-24T14:22:58;37.00;26.60
65072;DHT22;51663;52.310;17.016;2023-04-24T14:26:00;37.00;26.80
65072;DHT22;51663;52.310;17.016;2023-04-24T14:29:03;36.60;26.90
65072;DHT22;51663;52.310;17.016;2023-04-24T14:32:15;36.30;28.10
65072;DHT22;51663;52.310;17.016;2023-04-24T14:35:18;35.60;28.40
65072;DHT22;51663;52.310;17.016;2023-04-24T14:38:21;35.00;29.40
65072;DHT22;51663;52.310;17.016;2023-04-24T14:41:24;35.30;30.30
65072;DHT22;51663;52.310;17.016;2023-04-24T14:44:26;34.80;30.00
65072;DHT22;51663;52.310;17.016;2023-04-24T14:47:28;34.60;30.30
65072;DHT22;51663;52.310;17.016;2023-04-24T14:50:31;34.20;31.50
65072;DHT22;51663;52.310;17.016;2023-04-24T14:53:33;34.40;30.60
65072;DHT22;51663;52.310;17.016;2023-04-24T14:56:36;34.70;30.00
65072;DHT22;51663;52.310;17.016;2023-04-24T14:59:39;35.00;29.70
65072;DHT22;51663;52.310;17.016;2023-04-24T15:02:41;35.00;29.50
65072;DHT22;51663;52.310;17.016;2023-04-24T15:05:47;35.10;29.40
65072;DHT22;51663;52.310;17.016;2023-04-24T15:08:49;34.70;29.50
65072;DHT22;51663;52.310;17.016;2023-04-24T15:11:52;34.80;29.80
65072;DHT22;51663;52.310;17.016;2023-04-24T15:14:54;34.80;29.60
65072;DHT22;51663;52.310;17.016;2023-04-24T15:17:57;35.20;29.30
65072;DHT22;51663;52.310;17.016;2023-04-24T15:20:59;35.40;29.70
65072;DHT22;51663;52.310;17.016;2023-04-24T15:24:04;35.50;29.60
65072;DHT22;51663;52.310;17.016;2023-04-24T15:27:09;35.60;29.50
65072;DHT22;51663;52.310;17.016;2023-04-24T15:30:12;35.60;29.20
65072;DHT22;51663;52.310;17.016;2023-04-24T15:33:15;35.60;29.40
65072;DHT22;51663;52.310;17.016;2023-04-24T15:36:17;35.60;29.30
65072;DHT22;51663;52.310;17.016;2023-04-24T15:39:22;35.50;29.30
65072;DHT22;51663;52.310;17.016;2023-04-24T15:42:27;35.40;29.80
65072;DHT22;51663;52.310;17.016;2023-04-24T15:45:53;35.40;30.00
65072;DHT22;51663;52.310;17.016;2023-04-24T15:48:55;35.40;30.90
65072;DHT22;51663;52.310;17.016;2023-04-24T15:51:58;35.40;31.60
65072;DHT22;51663;52.310;17.016;2023-04-24T15:55:02;35.20;30.70
65072;DHT22;51663;52.310;17.016;2023-04-24T15:58:05;35.10;31.00
65072;DHT22;51663;52.310;17.016;2023-04-24T16:01:08;35.20;31.30
65072;DHT22;51663;52.310;17.016;2023-04-24T16:04:10;35.10;31.40
65072;DHT22;51663;52.310;17.016;2023-04-24T16:07:14;35.10;31.30
65072;DHT22;51663;52.310;17.016;2023-04-24T16:10:16;34.80;31.20
65072;DHT22;51663;52.310;17.016;2023-04-24T16:13:19;34.80;31.60
65072;DHT22;51663;52.310;17.016;2023-04-24T16:16:21;34.70;32.20
65072;DHT22;51663;52.310;17.016;2023-04-24T16:19:27;34.70;32.30
65072;DHT22;51663;52.310;17.016;2023-04-24T16:22:32;34.60;32.20
65072;DHT22;51663;52.310;17.016;2023-04-24T16:25:34;34.60;32.30
65072;DHT22;51663;52.310;17.016;2023-04-24T16:28:37;34.50;32.30
65072;DHT22;51663;52.310;17.016;2023-04-24T16:31:40;34.70;32.40
65072;DHT22;51663;52.310;17.016;2023-04-24T16:34:42;34.50;32.10
65072;DHT22;51663;52.310;17.016;2023-04-24T16:37:45;34.40;32.10
65072;DHT22;51663;52.310;17.016;2023-04-24T16:40:47;34.40;32.30
65072;DHT22;51663;52.310;17.016;2023-04-24T16:43:50;34.40;32.60
65072;DHT22;51663;52.310;17.016;2023-04-24T16:46:52;34.40;32.20
65072;DHT22;51663;52.310;17.016;2023-04-24T16:49:55;34.20;32.70
65072;DHT22;51663;52.310;17.016;2023-04-24T16:52:57;34.20;32.40
65072;DHT22;51663;52.310;17.016;2023-04-24T16:55:59;34.00;32.50
65072;DHT22;51663;52.310;17.016;2023-04-24T16:59:02;34.40;32.30
65072;DHT22;51663;52.310;17.016;2023-04-24T17:02:04;34.30;32.10
65072;DHT22;51663;52.310;17.016;2023-04-24T17:05:07;34.10;31.80
65072;DHT22;51663;52.310;17.016;2023-04-24T17:08:09;34.00;31.50
65072;DHT22;51663;52.310;17.016;2023-04-24T17:11:11;34.20;31.30
65072;DHT22;51663;52.310;17.016;2023-04-24T17:14:23;34.30;31.60
65072;DHT22;51663;52.310;17.016;2023-04-24T17:17:27;34.10;31.20
65072;DHT22;51663;52.310;17.016;2023-04-24T17:20:29;33.90;31.40
65072;DHT22;51663;52.310;17.016;2023-04-24T17:23:38;33.90;31.00
65072;DHT22;51663;52.310;17.016;2023-04-24T17:26:48;33.80;31.50
65072;DHT22;51663;52.310;17.016;2023-04-24T17:29:52;33.70;30.20
65072;DHT22;51663;52.310;17.016;2023-04-24T17:32:54;33.70;29.80
65072;DHT22;51663;52.310;17.016;2023-04-24T17:35:57;33.80;29.90
65072;DHT22;51663;52.310;17.016;2023-04-24T17:39:00;33.90;29.80
65072;DHT22;51663;52.310;17.016;2023-04-24T17:42:03;33.90;29.40
65072;DHT22;51663;52.310;17.016;2023-04-24T17:45:05;34.00;29.20
65072;DHT22;51663;52.310;17.016;2023-04-24T17:48:08;33.90;29.20
65072;DHT22;51663;52.310;17.016;2023-04-24T17:51:11;33.90;29.00
65072;DHT22;51663;52.310;17.016;2023-04-24T17:54:16;33.90;29.00
65072;DHT22;51663;52.310;17.016;2023-04-24T17:57:19;33.80;29.20
65072;DHT22;51663;52.310;17.016;2023-04-24T18:00:21;33.70;28.80
65072;DHT22;51663;52.310;17.016;2023-04-24T18:03:24;33.70;29.40
65072;DHT22;51663;52.310;17.016;2023-04-24T18:06:27;33.60;28.90
65072;DHT22;51663;52.310;17.016;2023-04-24T18:09:30;33.30;29.20
65072;DHT22;51663;52.310;17.016;2023-04-24T18:12:33;32.80;29.60
65072;DHT22;51663;52.310;17.016;2023-04-24T18:15:35;32.80;29.80
65072;DHT22;51663;52.310;17.016;2023-04-24T18:18:37;32.90;30.00
65072;DHT22;51663;52.310;17.016;2023-04-24T18:21:40;33.00;29.70
65072;DHT22;51663;52.310;17.016;2023-04-24T18:24:43;33.00;29.90
65072;DHT22;51663;52.310;17.016;2023-04-24T18:27:48;33.10;29.60
65072;DHT22;51663;52.310;17.016;2023-04-24T18:30:53;33.00;29.90
65072;DHT22;51663;52.310;17.016;2023-04-24T18:33:56;33.00;29.90
65072;DHT22;51663;52.310;17.016;2023-04-24T18:36:59;32.90;29.90
65072;DHT22;51663;52.310;17.016;2023-04-24T18:40:02;32.90;30.30
65072;DHT22;51663;52.310;17.016;2023-04-24T18:43:19;32.90;30.10
65072;DHT22;51663;52.310;17.016;2023-04-24T18:46:23;32.80;29.80
65072;DHT22;51663;52.310;17.016;2023-04-24T18:49:30;33.00;29.90
65072;DHT22;51663;52.310;17.016;2023-04-24T18:52:39;33.20;30.00
65072;DHT22;51663;52.310;17.016;2023-04-24T18:55:49;33.30;29.80
65072;DHT22;51663;52.310;17.016;2023-04-24T18:58:57;33.30;29.90
65072;DHT22;51663;52.310;17.016;2023-04-24T19:02:06;33.40;29.80
65072;DHT22;51663;52.310;17.016;2023-04-24T19:05:22;33.40;29.90
65072;DHT22;51663;52.310;17.016;2023-04-24T19:08:27;33.50;29.80
65072;DHT22;51663;52.310;17.016;2023-04-24T19:11:45;33.20;29.80
65072;DHT22;51663;52.310;17.016;2023-04-24T19:15:49;33.20;29.80
65072;DHT22;51663;52.310;17.016;2023-04-24T19:20:03;33.10;30.00
65072;DHT22;51663;52.310;17.016;2023-04-24T19:23:30;32.90;29.90
65072;DHT22;51663;52.310;17.016;2023-04-24T19:27:05;32.80;30.40
65072;DHT22;51663;52.310;17.016;2023-04-24T19:30:10;32.80;30.10
65072;DHT22;51663;52.310;17.016;2023-04-24T19:33:13;33.10;30.40
65072;DHT22;51663;52.310;17.016;2023-04-24T19:36:19;33.00;30.20
65072;DHT22;51663;52.310;17.016;2023-04-24T19:39:36;32.90;30.00
65072;DHT22;51663;52.310;17.016;2023-04-24T19:42:39;33.10;30.40
65072;DHT22;51663;52.310;17.016;2023-04-24T19:45:46;32.70;30.00
65072;DHT22;51663;52.310;17.016;2023-04-24T19:48:52;32.60;30.20
65072;DHT22;51663;52.310;17.016;2023-04-24T19:51:55;32.90;30.10
65072;DHT22;51663;52.310;17.016;2023-04-24T19:54:59;32.70;30.00
65072;DHT22;51663;52.310;17.016;2023-04-24T19:58:02;32.80;30.10
65072;DHT22;51663;52.310;17.016;2023-04-24T20:01:07;32.80;30.00
65072;DHT22;51663;52.310;17.016;2023-04-24T20:04:25;32.90;30.00
65072;DHT22;51663;52.310;17.016;2023-04-24T20:07:36;32.90;30.00
65072;DHT22;51663;52.310;17.016;2023-04-24T20:10:50;33.00;30.00
65072;DHT22;51663;52.310;17.016;2023-04-24T20:25:31;32.60;30.40
65072;DHT22;51663;52.310;17.016;2023-04-24T20:29:02;32.20;30.30
65072;DHT22;51663;52.310;17.016;2023-04-24T20:33:03;32.20;30.80
65072;DHT22;51663;52.310;17.016;2023-04-24T20:36:13;32.20;31.40
65072;DHT22;51663;52.310;17.016;2023-04-24T20:39:19;32.00;30.70
65072;DHT22;51663;52.310;17.016;2023-04-24T20:43:16;32.10;30.80
65072;DHT22;51663;52.310;17.016;2023-04-24T20:46:57;32.20;31.00
65072;DHT22;51663;52.310;17.016;2023-04-24T20:50:08;32.50;30.50
65072;DHT22;51663;52.310;17.016;2023-04-24T20:53:13;32.30;30.60
65072;DHT22;51663;52.310;17.016;2023-04-24T20:56:18;32.10;30.90
65072;DHT22;51663;52.310;17.016;2023-04-24T20:59:35;32.10;30.60
65072;DHT22;51663;52.310;17.016;2023-04-24T21:02:51;32.00;30.90
65072;DHT22;51663;52.310;17.016;2023-04-24T21:06:18;32.30;30.70
65072;DHT22;51663;52.310;17.016;2023-04-24T21:10:18;32.40;30.20
65072;DHT22;51663;52.310;17.016;2023-04-24T21:14:04;32.10;30.10
65072;DHT22;51663;52.310;17.016;2023-04-24T21:18:02;32.20;30.00
65072;DHT22;51663;52.310;17.016;2023-04-24T21:21:24;32.10;30.00
65072;DHT22;51663;52.310;17.016;2023-04-24T21:24:58;32.00;30.20
65072;DHT22;51663;52.310;17.016;2023-04-24T21:28:42;31.90;30.00
65072;DHT22;51663;52.310;17.016;2023-04-24T21:32:32;32.00;30.50
65072;DHT22;51663;52.310;17.016;2023-04-24T21:36:02;32.00;30.20
65072;DHT22;51663;52.310;17.016;2023-04-24T21:39:20;31.80;30.00
65072;DHT22;51663;52.310;17.016;2023-04-24T21:42:22;31.70;30.20
65072;DHT22;51663;52.310;17.016;2023-04-24T21:50:10;31.70;29.70
65072;DHT22;51663;52.310;17.016;2023-04-24T21:53:54;31.80;29.40
65072;DHT22;51663;52.310;17.016;2023-04-24T21:57:14;31.70;29.50
65072;DHT22;51663;52.310;17.016;2023-04-24T22:01:15;31.70;29.10
65072;DHT22;51663;52.310;17.016;2023-04-24T22:05:16;31.70;28.70
65072;DHT22;51663;52.310;17.016;2023-04-24T22:16:54;31.80;28.10
65072;DHT22;51663;52.310;17.016;2023-04-24T22:20:09;31.70;28.60
65072;DHT22;51663;52.310;17.016;2023-04-24T22:24:03;31.70;28.40
65072;DHT22;51663;52.310;17.016;2023-04-24T22:33:04;31.70;28.20
65072;DHT22;51663;52.310;17.016;2023-04-24T22:40:55;31.60;27.90
65072;DHT22;51663;52.310;17.016;2023-04-24T22:44:38;31.50;27.70
65072;DHT22;51663;52.310;17.016;2023-04-24T22:48:31;31.40;27.70
65072;DHT22;51663;52.310;17.016;2023-04-24T22:53:01;31.40;27.40
65072;DHT22;51663;52.310;17.016;2023-04-24T22:56:24;31.50;27.60
65072;DHT22;51663;52.310;17.016;2023-04-24T23:00:02;31.50;27.50
65072;DHT22;51663;52.310;17.016;2023-04-24T23:03:45;31.40;27.30
65072;DHT22;51663;52.310;17.016;2023-04-24T23:07:11;31.30;27.00
65072;DHT22;51663;52.310;17.016;2023-04-24T23:10:13;31.30;27.00
65072;DHT22;51663;52.310;17.016;2023-04-24T23:14:09;31.40;26.90
65072;DHT22;51663;52.310;17.016;2023-04-24T23:23:14;31.30;27.00
65072;DHT22;51663;52.310;17.016;2023-04-24T23:27:27;31.40;26.60
65072;DHT22;51663;52.310;17.016;2023-04-24T23:31:27;31.30;26.70
65072;DHT22;51663;52.310;17.016;2023-04-24T23:34:48;31.30;26.70
65072;DHT22;51663;52.310;17.016;2023-04-24T23:38:52;31.30;26.80
65072;DHT22;51663;52.310;17.016;2023-04-24T23:54:45;31.00;26.70
65072;DHT22;51663;52.310;17.016;2023-04-24T23:59:14;30.90;26.40
